Time;durP1;ratioP1;P1;durP2;ratioP2;P2;SDS_P1;SDS_P2;PMS_P1;PMS_P2;Temp;Humidity;BMP_temperature;BMP_pressure;BME280_temperature;BME280_humidity;BME280_pressure;Samples;Min_cycle;Max_cycle;Signal;HPM_P1;HPM_P2
2023/01/05 00:00:27;;;;;;;4.20;3.80;;;;;;;7.73;93.93;99392.02;108762;1258;37194;-75
2023/01/05 00:03:18;;;;;;;4.80;3.80;;;;;;;7.74;93.98;99383.99;108814;1267;37147;-76
2023/01/05 00:05:50;;;;;;;4.60;4.00;;;;;;;7.78;93.91;99383.13;108823;1274;37204;-76
2023/01/05 00:08:21;;;;;;;5.20;4.70;;;;;;;7.80;93.95;99381.64;108778;1259;36195;-75
2023/01/05 00:22:31;;;;;;;5.30;4.40;;;;;;;7.90;93.85;99364.91;108806;1260;37099;-76
2023/01/05 00:25:03;;;;;;;4.80;4.00;;;;;;;7.91;93.87;99360.36;108715;1256;174719;-77
2023/01/05 00:27:34;;;;;;;6.00;4.40;;;;;;;7.94;93.97;99354.34;108835;1274;37310;-76
2023/01/05 00:30:09;;;;;;;5.40;4.30;;;;;;;7.97;93.80;99353.48;108862;1273;37404;-75
2023/01/05 00:32:40;;;;;;;4.70;3.90;;;;;;;8.00;93.79;99355.63;108827;1274;37084;-74
2023/01/05 00:35:16;;;;;;;5.10;4.60;;;;;;;8.04;93.64;99356.83;108837;1256;36662;-76
2023/01/05 00:37:51;;;;;;;4.30;3.90;;;;;;;8.06;93.61;99348.91;108826;1256;37382;-76
2023/01/05 00:40:22;;;;;;;4.20;3.70;;;;;;;8.07;93.48;99344.21;108809;1265;36945;-73
2023/01/05 00:42:57;;;;;;;3.90;3.50;;;;;;;8.07;93.37;99343.14;108798;1253;37089;-74
2023/01/05 00:45:28;;;;;;;4.80;3.80;;;;;;;8.08;93.58;99343.63;108831;1272;37104;-76
2023/01/05 00:48:03;;;;;;;4.40;4.00;;;;;;;8.08;93.51;99338.58;108742;1266;37371;-76
2023/01/05 00:50:36;;;;;;;5.20;3.50;;;;;;;8.08;93.48;99332.66;108790;1257;37046;-77
2023/01/05 00:53:11;;;;;;;4.10;3.40;;;;;;;8.08;93.47;99325.04;108778;1265;38520;-75
2023/01/05 00:55:43;;;;;;;3.50;3.20;;;;;;;8.10;93.30;99320.78;108805;1256;36064;-76
2023/01/05 00:58:15;;;;;;;4.10;3.50;;;;;;;8.12;93.48;99319.63;108838;1254;37138;-76
2023/01/05 01:00:48;;;;;;;4.80;4.00;;;;;;;8.14;93.47;99319.92;108867;1274;38203;-78
2023/01/05 01:03:20;;;;;;;5.50;3.60;;;;;;;8.15;93.39;99321.80;108880;1274;37287;-77
2023/01/05 01:06:01;;;;;;;3.90;3.50;;;;;;;8.14;93.20;99316.27;108901;1251;37071;-78
2023/01/05 01:08:38;;;;;;;4.40;3.40;;;;;;;8.17;93.10;99319.43;108828;1256;37309;-78
2023/01/05 01:11:09;;;;;;;3.50;3.20;;;;;;;8.20;93.26;99316.52;108820;1264;38252;-77
2023/01/05 01:13:41;;;;;;;4.50;3.60;;;;;;;8.21;93.15;99305.84;108827;1274;37061;-76
2023/01/05 01:16:15;;;;;;;4.00;3.10;;;;;;;8.20;93.20;99299.45;108811;1274;36956;-75
2023/01/05 01:18:51;;;;;;;4.00;3.40;;;;;;;8.21;93.13;99304.81;108845;1251;36928;-77
2023/01/05 01:21:22;;;;;;;3.60;3.10;;;;;;;8.21;93.08;99302.54;108795;1257;37063;-75
2023/01/05 01:23:57;;;;;;;3.80;3.20;;;;;;;8.23;93.21;99301.79;108851;1264;36874;-76
2023/01/05 01:26:28;;;;;;;3.80;3.10;;;;;;;8.24;93.22;99302.09;108807;1261;37263;-76
2023/01/05 01:28:59;;;;;;;3.80;3.20;;;;;;;8.24;93.24;99294.97;108850;1256;37143;-76
2023/01/05 01:31:30;;;;;;;3.10;2.70;;;;;;;8.23;93.25;99303.86;108171;1274;907557;-75
2023/01/05 01:34:01;;;;;;;3.10;2.60;;;;;;;8.25;93.26;99289.85;108851;1257;37723;-75
2023/01/05 01:36:32;;;;;;;3.20;2.70;;;;;;;8.27;93.31;99293.23;108759;1274;37046;-75
2023/01/05 01:39:03;;;;;;;4.30;3.10;;;;;;;8.29;93.35;99283.27;108814;1265;36968;-76
2023/01/05 01:41:35;;;;;;;2.90;2.40;;;;;;;8.32;93.46;99276.18;108822;1264;36330;-73
2023/01/05 01:44:53;;;;;;;3.80;2.60;;;;;;;8.33;93.29;99274.58;108796;1265;37199;-78
2023/01/05 01:47:34;;;;;;;4.90;2.80;;;;;;;8.34;93.36;99260.79;108787;1274;37235;-78
2023/01/05 01:50:15;;;;;;;3.60;2.70;;;;;;;8.40;93.63;99252.73;108849;1264;37316;-73
2023/01/05 01:52:47;;;;;;;3.80;2.70;;;;;;;8.45;93.62;99250.38;108824;1274;38254;-74
2023/01/05 01:55:23;;;;;;;3.30;2.30;;;;;;;8.47;93.30;99248.05;108821;1257;37183;-75
2023/01/05 01:57:56;;;;;;;3.20;2.60;;;;;;;8.45;93.06;99249.69;108818;1266;37335;-75
2023/01/05 02:00:28;;;;;;;3.40;2.10;;;;;;;8.46;93.11;99248.27;108143;1265;907157;-76
2023/01/05 02:02:59;;;;;;;2.90;2.20;;;;;;;8.49;93.33;99243.58;108776;1257;36952;-77
2023/01/05 02:05:32;;;;;;;2.50;2.30;;;;;;;8.53;93.25;99245.84;108824;1257;36969;-75
2023/01/05 02:08:03;;;;;;;3.50;2.50;;;;;;;8.55;93.03;99238.29;108814;1257;37305;-73
2023/01/05 02:10:48;;;;;;;2.50;2.30;;;;;;;8.55;93.13;99226.14;108804;1256;37431;-76
2023/01/05 02:13:37;;;;;;;2.50;2.00;;;;;;;8.53;93.08;99226.55;108805;1258;37069;-74
2023/01/05 02:16:17;;;;;;;3.90;2.30;;;;;;;8.53;92.98;99220.48;108813;1258;37319;-75
2023/01/05 02:19:04;;;;;;;1.90;1.70;;;;;;;8.57;93.22;99220.63;108801;1274;36963;-75
2023/01/05 02:21:42;;;;;;;2.30;2.10;;;;;;;8.60;93.26;99214.40;108841;1263;37111;-73
2023/01/05 02:24:49;;;;;;;2.20;1.70;;;;;;;8.61;93.19;99213.84;108878;1258;37135;-75
2023/01/05 02:27:40;;;;;;;2.70;2.10;;;;;;;8.61;93.03;99209.66;108866;1251;36270;-74
2023/01/05 02:30:58;;;;;;;2.30;1.90;;;;;;;8.61;92.96;99201.98;108667;1274;172545;-76
2023/01/05 02:33:40;;;;;;;3.40;2.00;;;;;;;8.62;93.03;99201.42;108711;1274;37311;-76
2023/01/05 02:36:19;;;;;;;2.20;1.90;;;;;;;8.62;93.03;99197.10;108813;1251;37117;-77
2023/01/05 02:38:53;;;;;;;1.90;1.70;;;;;;;8.63;93.01;99193.23;108867;1251;36280;-77
2023/01/05 02:41:28;;;;;;;1.80;1.70;;;;;;;8.62;93.01;99194.99;108742;1258;37102;-75
2023/01/05 02:43:59;;;;;;;3.00;1.60;;;;;;;8.61;92.88;99190.16;108831;1251;37130;-76
2023/01/05 02:46:33;;;;;;;2.30;2.00;;;;;;;8.63;92.96;99186.10;108831;1256;37356;-76
2023/01/05 02:49:05;;;;;;;2.80;2.20;;;;;;;8.66;93.17;99188.20;108844;1274;37171;-77
2023/01/05 02:51:38;;;;;;;2.00;1.80;;;;;;;8.70;93.11;99192.02;108825;1270;37444;-75
2023/01/05 02:54:14;;;;;;;3.20;2.20;;;;;;;8.74;93.20;99189.00;108790;1274;37072;-76
2023/01/05 02:56:49;;;;;;;1.90;1.70;;;;;;;8.78;93.22;99185.16;108816;1267;36964;-76
2023/01/05 02:59:25;;;;;;;3.40;2.70;;;;;;;8.79;92.81;99188.27;108807;1274;37064;-75
2023/01/05 03:01:59;;;;;;;8.00;4.70;;;;;;;8.77;92.69;99183.50;108695;1258;37030;-75
2023/01/05 03:04:32;;;;;;;5.00;3.80;;;;;;;8.73;92.63;99186.44;108772;1257;37953;-78
2023/01/05 03:07:05;;;;;;;5.90;2.80;;;;;;;8.73;92.63;99181.23;108815;1264;38021;-75
2023/01/05 03:09:38;;;;;;;3.10;2.00;;;;;;;8.74;92.83;99180.50;108874;1264;37082;-76
2023/01/05 03:15:09;;;;;;;3.90;2.60;;;;;;;8.78;92.94;99168.63;108790;1260;37186;-75
2023/01/05 03:17:43;;;;;;;2.70;2.00;;;;;;;8.81;93.00;99166.95;108836;1274;37316;-75
2023/01/05 03:20:15;;;;;;;3.10;2.00;;;;;;;8.83;92.88;99160.41;108835;1266;37456;-75
2023/01/05 03:37:23;;;;;;;1.80;1.70;;;;;;;8.74;92.84;99138.92;108765;1258;37138;-74
2023/01/05 03:39:57;;;;;;;2.30;1.60;;;;;;;8.76;93.03;99135.89;108844;1257;37298;-75
2023/01/05 03:42:29;;;;;;;2.50;1.80;;;;;;;8.76;92.98;99131.88;108775;1257;37691;-76
2023/01/05 03:44:59;;;;;;;2.50;1.70;;;;;;;8.77;93.10;99127.67;108804;1258;36382;-76
2023/01/05 03:47:30;;;;;;;3.00;1.70;;;;;;;8.79;92.93;99127.92;108776;1251;36124;-75
2023/01/05 03:50:01;;;;;;;3.20;1.60;;;;;;;8.78;92.84;99129.34;108684;1251;174725;-77
2023/01/05 03:52:33;;;;;;;3.00;1.70;;;;;;;8.83;93.14;99124.09;108626;1267;174935;-74
2023/01/05 03:55:06;;;;;;;2.10;1.40;;;;;;;8.83;92.83;99125.98;108609;1258;37354;-72
2023/01/05 03:57:39;;;;;;;2.30;1.80;;;;;;;8.82;92.72;99120.65;108846;1259;37130;-74
2023/01/05 04:00:15;;;;;;;2.50;1.30;;;;;;;8.80;92.48;99114.13;108822;1257;37383;-74
2023/01/05 04:02:49;;;;;;;1.20;1.10;;;;;;;8.79;92.45;99109.83;108790;1258;36939;-75
2023/01/05 04:05:20;;;;;;;2.20;1.10;;;;;;;8.77;92.17;99108.16;108822;1251;37035;-75
2023/01/05 04:07:51;;;;;;;1.20;1.10;;;;;;;8.75;92.22;99110.18;108820;1261;37272;-77
2023/01/05 04:10:25;;;;;;;1.50;1.30;;;;;;;8.75;92.35;99103.92;108811;1274;37115;-76
2023/01/05 04:12:58;;;;;;;1.30;1.20;;;;;;;8.74;92.27;99103.30;108481;1274;472778;-76
2023/01/05 04:15:29;;;;;;;2.20;1.20;;;;;;;8.72;92.12;99105.66;108841;1263;37614;-74
2023/01/05 04:18:00;;;;;;;2.50;1.20;;;;;;;8.70;92.12;99107.16;108796;1260;37477;-77
2023/01/05 04:20:31;;;;;;;2.40;1.50;;;;;;;8.68;92.22;99116.29;108819;1255;36351;-74
2023/01/05 04:23:02;;;;;;;1.60;1.20;;;;;;;8.69;92.37;99121.64;108805;1258;38840;-74
2023/01/05 04:25:33;;;;;;;1.90;1.10;;;;;;;8.69;92.36;99121.80;108873;1255;38879;-73
2023/01/05 04:28:04;;;;;;;2.50;1.20;;;;;;;8.64;92.14;99122.05;108828;1274;36938;-74
2023/01/05 04:30:36;;;;;;;1.30;1.00;;;;;;;8.65;92.36;99120.12;108826;1255;36358;-74
2023/01/05 04:33:07;;;;;;;1.50;1.00;;;;;;;8.65;92.30;99119.09;108787;1266;37114;-73
2023/01/05 04:35:38;;;;;;;1.00;0.90;;;;;;;8.65;92.42;99123.08;108797;1257;36803;-74
2023/01/05 04:38:09;;;;;;;1.60;1.10;;;;;;;8.65;92.54;99120.42;108749;1254;37267;-76
2023/01/05 04:40:40;;;;;;;1.40;1.00;;;;;;;8.65;92.28;99118.52;108803;1253;37201;-75
2023/01/05 04:43:12;;;;;;;1.60;0.90;;;;;;;8.64;92.23;99114.42;108812;1257;37679;-75
2023/01/05 04:45:43;;;;;;;1.00;0.90;;;;;;;8.64;92.26;99113.40;108823;1260;36937;-74
2023/01/05 04:48:14;;;;;;;1.30;1.10;;;;;;;8.62;91.99;99117.64;108783;1255;37539;-76
2023/01/05 04:50:45;;;;;;;1.50;0.90;;;;;;;8.60;92.22;99113.74;108794;1257;37223;-75
2023/01/05 04:53:16;;;;;;;1.20;0.80;;;;;;;8.58;92.11;99110.19;108939;1251;37127;-73
2023/01/05 04:55:47;;;;;;;1.10;0.90;;;;;;;8.54;91.91;99113.86;108833;1257;36767;-76
2023/01/05 04:58:18;;;;;;;1.70;0.80;;;;;;;8.54;92.15;99112.33;108794;1274;37096;-75
2023/01/05 05:00:49;;;;;;;1.10;1.00;;;;;;;8.54;92.12;99108.84;108846;1257;37242;-77
2023/01/05 05:03:20;;;;;;;1.30;0.90;;;;;;;8.51;92.14;99113.48;108827;1255;37085;-77
2023/01/05 05:05:52;;;;;;;1.40;0.90;;;;;;;8.52;92.28;99112.41;108754;1258;37235;-75
2023/01/05 05:08:23;;;;;;;1.90;1.30;;;;;;;8.52;92.28;99113.45;108827;1267;36965;-74
2023/01/05 05:10:54;;;;;;;1.50;1.40;;;;;;;8.53;92.30;99116.19;108820;1274;37612;-75
2023/01/05 05:13:25;;;;;;;1.40;1.10;;;;;;;8.54;92.15;99111.81;108790;1260;36906;-73
2023/01/05 05:15:58;;;;;;;1.40;1.30;;;;;;;8.54;92.32;99109.38;108730;1260;37184;-75
2023/01/05 05:18:29;;;;;;;1.20;1.10;;;;;;;8.51;92.24;99111.56;108813;1267;37556;-74
2023/01/05 05:21:00;;;;;;;2.50;1.20;;;;;;;8.51;92.42;99115.77;108806;1256;38441;-75
2023/01/05 05:23:34;;;;;;;1.10;1.00;;;;;;;8.51;92.38;99118.00;108798;1257;37446;-76
2023/01/05 05:26:10;;;;;;;3.00;1.10;;;;;;;8.52;92.48;99116.23;108745;1257;37876;-77
2023/01/05 05:28:44;;;;;;;1.20;1.10;;;;;;;8.52;92.43;99120.39;108792;1262;36345;-77
2023/01/05 05:31:15;;;;;;;1.20;1.00;;;;;;;8.52;92.52;99120.56;108797;1257;37286;-77
2023/01/05 05:33:47;;;;;;;1.40;1.10;;;;;;;8.53;92.54;99124.52;108760;1263;36925;-77
2023/01/05 05:36:20;;;;;;;1.00;0.90;;;;;;;8.53;92.57;99123.30;108784;1257;37322;-74
2023/01/05 05:38:51;;;;;;;1.90;0.90;;;;;;;8.55;92.66;99128.98;108830;1274;37272;-76
2023/01/05 05:41:23;;;;;;;1.20;1.00;;;;;;;8.56;92.36;99127.70;108801;1256;36984;-73
2023/01/05 05:43:59;;;;;;;1.10;0.80;;;;;;;8.55;92.48;99128.06;108797;1257;38251;-74
2023/01/05 05:46:34;;;;;;;1.70;0.90;;;;;;;8.55;92.31;99126.87;108749;1267;36638;-72
2023/01/05 05:49:06;;;;;;;1.20;0.90;;;;;;;8.55;92.31;99130.18;108824;1263;37671;-73
2023/01/05 05:51:37;;;;;;;1.80;0.80;;;;;;;8.54;92.14;99125.67;108772;1267;37557;-76
2023/01/05 05:54:08;;;;;;;1.30;0.70;;;;;;;8.55;92.07;99129.65;108820;1274;37324;-75
2023/01/05 05:56:43;;;;;;;1.20;0.90;;;;;;;8.54;91.91;99135.45;108800;1264;37199;-75
2023/01/05 05:59:14;;;;;;;1.90;0.90;;;;;;;8.51;91.95;99136.27;108831;1258;37494;-74
2023/01/05 06:01:46;;;;;;;1.80;0.80;;;;;;;8.49;91.70;99137.22;108778;1251;37040;-76
2023/01/05 06:04:17;;;;;;;1.20;0.70;;;;;;;8.47;91.61;99136.83;108739;1274;173766;-76
2023/01/05 06:06:49;;;;;;;2.00;0.60;;;;;;;8.45;91.56;99139.70;108832;1259;37243;-75
2023/01/05 06:09:20;;;;;;;1.00;0.60;;;;;;;8.45;91.59;99137.95;108781;1261;37539;-75
2023/01/05 06:11:55;;;;;;;0.90;0.50;;;;;;;8.45;91.72;99134.63;108793;1254;36764;-75
2023/01/05 06:14:30;;;;;;;1.50;0.70;;;;;;;8.45;91.57;99135.48;108811;1257;38300;-76
2023/01/05 06:17:03;;;;;;;1.50;0.70;;;;;;;8.42;91.19;99137.23;108791;1251;36364;-76
2023/01/05 06:19:36;;;;;;;1.10;0.70;;;;;;;8.41;91.23;99140.23;108838;1251;36987;-76
2023/01/05 06:22:14;;;;;;;1.20;0.50;;;;;;;8.40;91.28;99143.07;108814;1253;36158;-74
2023/01/05 06:24:46;;;;;;;2.20;0.70;;;;;;;8.37;90.96;99141.27;108741;1270;37852;-75
2023/01/05 06:27:19;;;;;;;2.40;0.60;;;;;;;8.34;91.06;99146.82;108813;1274;38020;-77
2023/01/05 06:29:50;;;;;;;1.30;0.70;;;;;;;8.30;91.05;99146.30;108788;1257;37296;-77
2023/01/05 06:32:21;;;;;;;1.80;0.70;;;;;;;8.27;90.87;99150.08;108764;1255;36017;-77
2023/01/05 06:34:53;;;;;;;1.00;0.60;;;;;;;8.25;90.99;99149.67;108780;1274;37783;-77
2023/01/05 06:37:25;;;;;;;1.50;0.70;;;;;;;8.25;90.97;99152.64;108796;1251;37299;-76
2023/01/05 06:39:56;;;;;;;1.60;0.70;;;;;;;8.25;91.20;99151.55;108835;1269;37605;-75
2023/01/05 06:42:28;;;;;;;1.70;0.70;;;;;;;8.27;91.30;99152.35;108795;1255;37401;-74
2023/01/05 06:44:59;;;;;;;1.40;0.80;;;;;;;8.28;91.41;99155.95;108766;1257;37534;-75
2023/01/05 06:47:37;;;;;;;2.20;0.90;;;;;;;8.30;91.34;99160.73;108771;1274;37116;-76
2023/01/05 06:50:11;;;;;;;1.40;0.70;;;;;;;8.30;91.18;99154.31;108765;1259;37078;-75
2023/01/05 06:52:49;;;;;;;1.40;0.60;;;;;;;8.31;91.44;99154.06;108832;1257;38431;-76
2023/01/05 06:55:21;;;;;;;3.40;0.80;;;;;;;8.31;91.27;99155.48;108869;1274;36606;-75
2023/01/05 06:57:55;;;;;;;5.00;1.80;;;;;;;8.33;91.39;99160.40;108830;1260;37625;-75
2023/01/05 07:00:26;;;;;;;3.30;1.80;;;;;;;8.35;91.43;99159.61;108871;1262;37109;-73
2023/01/05 07:02:57;;;;;;;2.80;1.30;;;;;;;8.37;91.44;99158.85;108806;1253;36707;-77
2023/01/05 07:05:29;;;;;;;3.10;1.50;;;;;;;8.38;91.40;99160.02;108771;1259;36789;-73
2023/01/05 07:08:03;;;;;;;4.40;1.50;;;;;;;8.36;91.36;99162.39;108693;1256;174717;-72
2023/01/05 07:10:44;;;;;;;4.90;2.20;;;;;;;8.34;91.35;99169.59;108876;1274;36959;-74
2023/01/05 07:13:18;;;;;;;6.70;2.40;;;;;;;8.34;91.37;99168.02;108192;1264;905938;-74
2023/01/05 07:15:49;;;;;;;3.80;1.70;;;;;;;8.34;91.26;99170.28;108942;1267;37008;-77
2023/01/05 07:18:25;;;;;;;4.60;1.70;;;;;;;8.34;91.60;99169.92;108823;1254;35998;-75
2023/01/05 07:21:01;;;;;;;3.10;1.60;;;;;;;8.36;91.51;99175.05;108895;1274;38327;-75
2023/01/05 07:23:37;;;;;;;3.20;1.50;;;;;;;8.39;91.58;99171.13;108871;1254;37127;-75
2023/01/05 07:26:14;;;;;;;2.90;1.20;;;;;;;8.41;91.68;99171.17;108889;1257;37817;-75
2023/01/05 07:28:52;;;;;;;3.10;1.80;;;;;;;8.42;91.49;99170.95;108857;1252;37279;-75
2023/01/05 07:31:25;;;;;;;3.20;1.30;;;;;;;8.45;91.77;99171.68;108880;1274;36161;-74
2023/01/05 07:34:02;;;;;;;3.50;1.60;;;;;;;8.46;91.68;99175.60;108834;1253;37017;-75
2023/01/05 07:36:36;;;;;;;4.10;1.80;;;;;;;8.46;91.71;99173.89;108826;1263;37196;-72
2023/01/05 07:39:08;;;;;;;3.20;1.60;;;;;;;8.46;91.73;99175.63;108859;1258;36286;-72
2023/01/05 07:41:43;;;;;;;6.20;1.70;;;;;;;8.48;91.72;99170.51;108895;1255;37163;-72
2023/01/05 07:44:17;;;;;;;2.40;1.60;;;;;;;8.52;91.96;99170.30;108934;1274;38945;-72
2023/01/05 07:46:49;;;;;;;4.30;1.80;;;;;;;8.56;91.82;99171.48;108853;1268;37869;-74
2023/01/05 07:49:21;;;;;;;3.40;1.70;;;;;;;8.57;91.87;99175.11;108844;1262;36973;-72
2023/01/05 07:51:53;;;;;;;5.20;1.70;;;;;;;8.58;91.82;99170.69;108852;1251;37216;-73
2023/01/05 07:54:28;;;;;;;3.80;1.50;;;;;;;8.62;91.92;99172.59;108894;1251;37562;-75
2023/01/05 07:57:01;;;;;;;4.10;1.90;;;;;;;8.67;92.03;99176.17;108869;1274;36975;-75
2023/01/05 07:59:36;;;;;;;3.60;1.90;;;;;;;8.68;91.84;99172.11;108915;1254;38225;-75
2023/01/05 08:02:10;;;;;;;3.00;1.80;;;;;;;8.69;91.86;99176.05;108853;1255;37289;-76
2023/01/05 08:04:44;;;;;;;4.20;1.60;;;;;;;8.72;91.95;99178.86;108884;1256;38832;-74
2023/01/05 08:07:15;;;;;;;2.50;1.40;;;;;;;8.73;91.69;99179.01;108836;1274;37496;-74
2023/01/05 08:15:29;;;;;;;2.30;1.90;;;;;;;8.77;91.64;99178.59;108793;1274;37098;-76
2023/01/05 08:18:01;;;;;;;3.30;1.60;;;;;;;8.78;91.69;99178.54;108818;1257;37535;-76
2023/01/05 08:20:35;;;;;;;4.00;2.00;;;;;;;8.78;91.53;99181.34;108814;1274;37087;-74
2023/01/05 08:23:08;;;;;;;4.70;2.10;;;;;;;8.79;91.41;99183.71;108838;1251;36108;-75
2023/01/05 08:25:41;;;;;;;4.00;1.80;;;;;;;8.83;91.48;99183.39;108859;1274;37021;-75
2023/01/05 08:28:12;;;;;;;2.60;1.40;;;;;;;8.82;91.35;99188.81;108803;1256;37123;-76
2023/01/05 08:30:44;;;;;;;3.40;1.60;;;;;;;8.79;91.09;99188.59;108811;1274;36394;-75
2023/01/05 08:33:15;;;;;;;4.20;1.50;;;;;;;8.75;90.95;99194.52;108841;1255;36320;-75
2023/01/05 08:35:49;;;;;;;3.60;1.80;;;;;;;8.74;91.00;99200.85;108772;1255;37092;-74
2023/01/05 08:38:22;;;;;;;2.40;1.60;;;;;;;8.73;91.01;99203.66;108833;1274;38538;-74
2023/01/05 08:40:59;;;;;;;3.20;1.60;;;;;;;8.75;91.15;99202.67;108833;1256;37050;-74
2023/01/05 08:43:33;;;;;;;2.70;1.70;;;;;;;8.77;91.23;99200.34;108847;1255;37600;-73
2023/01/05 08:46:10;;;;;;;3.10;1.40;;;;;;;8.77;91.03;99204.86;108885;1274;37074;-76
2023/01/05 08:48:43;;;;;;;3.50;1.60;;;;;;;8.78;90.96;99207.42;108878;1251;37034;-73
2023/01/05 08:51:21;;;;;;;2.40;1.40;;;;;;;8.82;91.03;99209.70;108876;1274;37054;-74
2023/01/05 08:53:52;;;;;;;4.60;1.80;;;;;;;8.80;90.76;99213.44;108846;1256;36024;-75
2023/01/05 08:56:25;;;;;;;5.10;1.80;;;;;;;8.79;90.87;99218.67;108771;1274;37085;-76
2023/01/05 08:58:57;;;;;;;1.90;1.30;;;;;;;8.80;91.07;99227.85;108889;1274;37208;-73
2023/01/05 09:01:29;;;;;;;4.00;1.40;;;;;;;8.81;90.91;99234.45;108881;1263;38935;-73
2023/01/05 09:04:01;;;;;;;3.00;1.50;;;;;;;8.80;90.75;99244.02;108787;1255;36954;-74
2023/01/05 09:06:31;;;;;;;2.80;1.60;;;;;;;8.80;90.31;99251.52;108806;1253;37063;-74
2023/01/05 09:09:04;;;;;;;2.90;1.20;;;;;;;8.75;90.01;99254.85;108801;1255;37057;-73
2023/01/05 09:11:35;;;;;;;4.30;1.20;;;;;;;8.73;89.97;99256.71;108807;1251;37302;-76
2023/01/05 09:14:06;;;;;;;3.90;1.50;;;;;;;8.67;89.68;99266.02;108869;1255;36897;-72
2023/01/05 09:16:41;;;;;;;3.60;1.50;;;;;;;8.67;89.76;99265.17;108872;1264;37054;-73
2023/01/05 09:19:12;;;;;;;2.50;1.30;;;;;;;8.66;89.41;99266.07;108845;1251;37291;-74
2023/01/05 09:21:44;;;;;;;3.10;1.10;;;;;;;8.66;89.28;99269.05;108868;1256;37459;-73
2023/01/05 09:24:15;;;;;;;4.90;1.50;;;;;;;8.64;88.90;99271.02;108947;1274;36993;-75
2023/01/05 09:26:47;;;;;;;6.00;1.80;;;;;;;8.63;88.73;99269.22;108672;1272;174705;-75
2023/01/05 09:29:20;;;;;;;2.70;1.20;;;;;;;8.60;88.13;99270.05;108856;1274;37486;-74
2023/01/05 09:31:52;;;;;;;3.30;1.20;;;;;;;8.58;87.95;99269.45;108833;1255;37196;-76
2023/01/05 09:34:23;;;;;;;2.70;1.50;;;;;;;8.58;87.45;99277.25;108853;1264;37346;-75
2023/01/05 09:36:55;;;;;;;2.70;1.40;;;;;;;8.57;86.98;99282.71;108794;1256;38124;-76
2023/01/05 09:39:26;;;;;;;2.30;1.30;;;;;;;8.58;87.08;99281.80;108867;1255;37190;-75
2023/01/05 09:42:00;;;;;;;4.50;1.50;;;;;;;8.57;86.48;99285.83;108822;1274;36175;-74
2023/01/05 09:44:34;;;;;;;3.50;1.20;;;;;;;8.54;86.54;99286.12;108825;1266;37139;-76
2023/01/05 09:47:10;;;;;;;2.90;1.40;;;;;;;8.55;86.54;99286.08;108930;1255;37374;-74
2023/01/05 09:49:42;;;;;;;4.10;1.80;;;;;;;8.55;86.40;99284.69;108860;1253;37106;-75
2023/01/05 09:52:23;;;;;;;5.20;1.50;;;;;;;8.53;86.20;99286.36;108886;1255;37237;-74
2023/01/05 09:54:57;;;;;;;3.40;1.20;;;;;;;8.53;86.57;99287.20;108879;1257;37295;-76
2023/01/05 09:57:29;;;;;;;5.00;1.30;;;;;;;8.59;86.15;99282.43;108838;1274;37389;-76
2023/01/05 10:00:03;;;;;;;2.60;1.30;;;;;;;8.69;86.39;99280.89;108852;1251;36042;-75
2023/01/05 10:02:40;;;;;;;4.00;1.60;;;;;;;8.83;86.35;99288.94;108868;1255;36963;-74
2023/01/05 10:05:13;;;;;;;3.80;1.40;;;;;;;8.96;86.03;99284.80;108888;1254;36667;-75
2023/01/05 10:07:51;;;;;;;3.00;1.50;;;;;;;9.00;85.42;99286.55;108847;1262;37916;-74
2023/01/05 10:10:40;;;;;;;4.50;2.00;;;;;;;8.96;84.90;99285.67;108702;1253;174745;-73
2023/01/05 10:13:24;;;;;;;4.50;1.80;;;;;;;8.91;84.47;99284.55;108818;1256;36388;-74
2023/01/05 10:16:05;;;;;;;4.50;2.00;;;;;;;8.98;85.04;99281.43;108831;1251;37480;-74
2023/01/05 10:18:48;;;;;;;4.80;1.70;;;;;;;9.05;84.77;99285.58;108899;1254;36991;-73
2023/01/05 10:21:37;;;;;;;4.50;2.10;;;;;;;9.13;85.12;99282.39;108789;1250;174634;-75
2023/01/05 10:24:24;;;;;;;4.90;2.20;;;;;;;9.22;85.02;99278.49;108891;1258;37198;-74
2023/01/05 10:27:02;;;;;;;3.80;2.00;;;;;;;9.25;84.58;99286.66;108915;1251;38370;-74
2023/01/05 10:29:44;;;;;;;4.40;2.20;;;;;;;9.28;84.54;99283.77;108864;1256;36591;-74
2023/01/05 10:32:36;;;;;;;6.90;2.00;;;;;;;9.30;84.46;99277.92;108930;1250;36034;-73
2023/01/05 10:35:19;;;;;;;5.00;2.40;;;;;;;9.29;84.14;99282.15;108878;1254;36979;-74
2023/01/05 10:38:05;;;;;;;8.30;3.30;;;;;;;9.25;84.23;99283.71;108924;1254;37095;-73
2023/01/05 10:40:54;;;;;;;4.60;2.60;;;;;;;9.21;83.94;99279.90;108895;1254;38038;-73
2023/01/05 10:43:49;;;;;;;7.10;2.80;;;;;;;9.22;84.01;99283.73;108895;1255;37157;-75
2023/01/05 10:46:53;;;;;;;8.70;3.00;;;;;;;9.20;83.66;99277.55;108888;1253;36445;-74
2023/01/05 10:49:30;;;;;;;7.80;3.10;;;;;;;9.16;83.54;99281.06;108899;1254;36982;-73
2023/01/05 10:52:19;;;;;;;4.20;2.50;;;;;;;9.16;83.29;99277.76;108877;1254;38453;-73
2023/01/05 10:55:02;;;;;;;5.60;2.70;;;;;;;9.10;82.90;99276.12;108842;1251;36102;-73
2023/01/05 10:57:42;;;;;;;6.30;2.50;;;;;;;9.05;82.93;99274.48;108871;1254;37142;-74
2023/01/05 11:00:21;;;;;;;6.60;2.80;;;;;;;9.03;82.79;99277.52;108764;1251;36918;-74
2023/01/05 11:03:06;;;;;;;5.70;2.50;;;;;;;9.00;82.71;99278.52;108162;1256;919451;-74
2023/01/05 11:05:38;;;;;;;4.70;2.80;;;;;;;8.97;82.40;99278.35;108855;1250;37369;-73
2023/01/05 11:08:17;;;;;;;7.50;3.10;;;;;;;8.93;82.56;99283.73;108884;1254;36100;-74
2023/01/05 11:10:53;;;;;;;6.40;3.10;;;;;;;8.91;82.12;99279.14;108888;1255;36253;-75
2023/01/05 11:13:32;;;;;;;5.20;2.80;;;;;;;8.86;81.77;99280.45;108918;1256;37316;-75
2023/01/05 11:16:11;;;;;;;5.40;2.10;;;;;;;8.83;81.82;99282.50;108888;1256;37147;-75
2023/01/05 11:18:50;;;;;;;5.30;2.70;;;;;;;8.83;82.14;99280.05;108856;1254;36990;-75
2023/01/05 11:21:22;;;;;;;4.80;3.00;;;;;;;8.86;81.83;99280.30;108862;1254;37197;-75
2023/01/05 11:23:55;;;;;;;6.00;2.70;;;;;;;8.86;81.57;99282.91;108915;1250;37658;-75
2023/01/05 11:26:33;;;;;;;8.00;4.00;;;;;;;8.82;81.48;99286.70;108877;1250;36071;-74
2023/01/05 11:29:13;;;;;;;6.60;3.10;;;;;;;8.80;81.79;99285.23;108874;1264;36233;-75
2023/01/05 11:31:52;;;;;;;5.90;2.90;;;;;;;8.80;81.96;99286.96;108870;1273;36318;-75
2023/01/05 11:34:40;;;;;;;5.40;2.90;;;;;;;8.80;81.99;99284.36;108891;1254;37137;-75
2023/01/05 11:37:24;;;;;;;7.10;3.20;;;;;;;8.80;81.75;99286.83;108826;1273;37189;-73
2023/01/05 11:39:56;;;;;;;6.40;3.00;;;;;;;8.78;82.11;99284.13;108882;1250;37054;-75
2023/01/05 11:42:34;;;;;;;4.30;2.10;;;;;;;8.77;81.99;99289.88;108903;1254;36436;-75
2023/01/05 11:45:16;;;;;;;4.80;2.50;;;;;;;8.73;82.01;99289.92;108910;1254;38386;-75
2023/01/05 11:47:49;;;;;;;6.90;3.60;;;;;;;8.73;82.37;99286.42;108875;1273;37275;-74
2023/01/05 11:50:25;;;;;;;5.80;3.10;;;;;;;8.72;82.37;99288.22;108253;1254;902962;-74
2023/01/05 11:52:59;;;;;;;6.70;3.10;;;;;;;8.70;82.41;99294.41;108888;1256;37098;-74
2023/01/05 11:55:38;;;;;;;6.40;2.60;;;;;;;8.65;82.59;99289.77;108863;1266;36955;-74
2023/01/05 11:58:18;;;;;;;;;;;;;;;8.63;82.78;99287.45;108919;1251;37321;-73
2023/01/05 12:01:24;;;;;;;6.00;2.60;;;;;;;8.57;83.08;99282.17;108912;1252;37656;-75
2023/01/05 12:04:12;;;;;;;5.70;2.10;;;;;;;8.58;83.17;99284.37;108882;1252;37989;-74
2023/01/05 12:07:15;;;;;;;6.40;2.30;;;;;;;8.59;83.35;99283.11;108867;1273;37097;-74
2023/01/05 12:09:48;;;;;;;6.80;2.50;;;;;;;8.63;83.37;99288.34;108834;1273;38835;-73
2023/01/05 12:12:44;;;;;;;9.70;2.50;;;;;;;8.64;83.39;99293.16;108492;1254;520339;-74
2023/01/05 12:15:37;;;;;;;4.00;2.00;;;;;;;8.64;83.15;99297.81;108911;1254;37277;-75
2023/01/05 12:18:19;;;;;;;5.10;1.90;;;;;;;8.62;82.87;99295.49;108825;1254;37042;-76
2023/01/05 12:20:59;;;;;;;5.60;2.40;;;;;;;8.60;82.53;99291.61;108886;1254;36357;-76
2023/01/05 12:23:57;;;;;;;8.00;2.30;;;;;;;8.53;82.30;99294.70;108848;1255;36442;-75
2023/01/05 12:26:29;;;;;;;5.60;1.80;;;;;;;8.49;82.37;99290.88;108718;1261;36863;-75
2023/01/05 12:29:28;;;;;;;8.00;2.30;;;;;;;8.50;82.31;99293.98;108890;1251;36216;-75
2023/01/05 12:32:20;;;;;;;6.40;1.70;;;;;;;8.46;81.61;99290.66;108820;1256;39291;-76
2023/01/05 12:35:19;;;;;;;4.50;1.60;;;;;;;8.44;81.72;99289.55;108799;1269;37419;-77
2023/01/05 12:38:05;;;;;;;4.60;1.70;;;;;;;8.42;81.70;99282.52;108810;1263;38721;-77
2023/01/05 12:40:57;;;;;;;6.70;2.30;;;;;;;8.41;81.69;99277.70;108913;1250;37051;-75
2023/01/05 12:43:38;;;;;;;5.70;1.90;;;;;;;8.42;81.69;99276.42;108917;1255;36096;-76
2023/01/05 12:46:18;;;;;;;4.80;1.70;;;;;;;8.43;81.37;99277.79;108891;1273;36967;-77
2023/01/05 12:48:49;;;;;;;;;;;;;;;8.43;81.16;99274.84;108868;1271;38254;-75